sensor_id;sensor_type;location;lat;lon;timestamp;pressure;altitude;pressure_sealevel;temperature;humidity
33845;BME280;20145;43.118;25.694;2023-04-08T00:01:21;99826.00;;;7.73;81.97
33845;BME280;20145;43.118;25.694;2023-04-08T00:03:47;99829.44;;;7.75;81.35
33845;BME280;20145;43.118;25.694;2023-04-08T00:06:12;99827.72;;;7.75;82.19
33845;BME280;20145;43.118;25.694;2023-04-08T00:08:38;99829.41;;;7.70;81.86
33845;BME280;20145;43.118;25.694;2023-04-08T00:11:04;99824.28;;;7.66;82.15
33845;BME280;20145;43.118;25.694;2023-04-08T00:13:29;99830.22;;;7.60;83.49
33845;BME280;20145;43.118;25.694;2023-04-08T00:15:55;99825.09;;;7.60;83.76
33845;BME280;20145;43.118;25.694;2023-04-08T00:18:21;99825.97;;;7.62;84.06
33845;BME280;20145;43.118;25.694;2023-04-08T00:20:46;99828.50;;;7.57;83.11
33845;BME280;20145;43.118;25.694;2023-04-08T00:23:12;99828.50;;;7.57;81.66
33845;BME280;20145;43.118;25.694;2023-04-08T00:25:37;99820.84;;;7.67;79.93
33845;BME280;20145;43.118;25.694;2023-04-08T00:28:03;99808.06;;;7.77;79.53
33845;BME280;20145;43.118;25.694;2023-04-08T00:30:29;99800.38;;;7.83;80.90
33845;BME280;20145;43.118;25.694;2023-04-08T00:32:54;99807.25;;;7.89;81.41
33845;BME280;20145;43.118;25.694;2023-04-08T00:35:20;99819.97;;;7.63;80.71
33845;BME280;20145;43.118;25.694;2023-04-08T00:37:45;99812.22;;;7.57;79.94
33845;BME280;20145;43.118;25.694;2023-04-08T00:40:12;99808.81;;;7.58;80.12
33845;BME280;20145;43.118;25.694;2023-04-08T00:42:38;99814.03;;;7.72;80.25
33845;BME280;20145;43.118;25.694;2023-04-08T00:45:05;99808.94;;;7.81;82.01
33845;BME280;20145;43.118;25.694;2023-04-08T00:47:31;99805.50;;;7.80;82.39
33845;BME280;20145;43.118;25.694;2023-04-08T00:49:56;99808.94;;;7.84;82.89
33845;BME280;20145;43.118;25.694;2023-04-08T00:52:22;99803.81;;;7.79;84.03
33845;BME280;20145;43.118;25.694;2023-04-08T00:54:47;99802.84;;;7.67;84.62
33845;BME280;20145;43.118;25.694;2023-04-08T00:57:13;99789.91;;;7.50;84.56
33845;BME280;20145;43.118;25.694;2023-04-08T00:59:40;99807.91;;;7.53;85.38
33845;BME280;20145;43.118;25.694;2023-04-08T01:05:05;99807.88;;;7.50;84.04
33845;BME280;20145;43.118;25.694;2023-04-08T01:07:46;99794.19;;;7.49;85.94
33845;BME280;20145;43.118;25.694;2023-04-08T01:10:19;99795.91;;;7.50;85.18
33845;BME280;20145;43.118;25.694;2023-04-08T01:12:55;99795.94;;;7.56;86.11
33845;BME280;20145;43.118;25.694;2023-04-08T01:15:22;99796.81;;;7.54;86.50
33845;BME280;20145;43.118;25.694;2023-04-08T01:17:52;99783.09;;;7.49;86.18
33845;BME280;20145;43.118;25.694;2023-04-08T01:20:19;99788.22;;;7.50;86.31
33845;BME280;20145;43.118;25.694;2023-04-08T01:25:50;99800.22;;;7.53;85.61
33845;BME280;20145;43.118;25.694;2023-04-08T01:28:17;99807.91;;;7.53;86.48
33845;BME280;20145;43.118;25.694;2023-04-08T01:30:43;99798.47;;;7.49;86.43
33845;BME280;20145;43.118;25.694;2023-04-08T01:33:13;99807.91;;;7.48;86.02
33845;BME280;20145;43.118;25.694;2023-04-08T01:35:39;99797.59;;;7.44;86.17
33845;BME280;20145;43.118;25.694;2023-04-08T01:38:08;99799.25;;;7.38;86.76
33845;BME280;20145;43.118;25.694;2023-04-08T01:40:36;99796.66;;;7.35;85.91
33845;BME280;20145;43.118;25.694;2023-04-08T01:43:06;99782.03;;;7.25;86.92
33845;BME280;20145;43.118;25.694;2023-04-08T01:45:32;99783.75;;;7.25;87.40
33845;BME280;20145;43.118;25.694;2023-04-08T01:47:59;99785.44;;;7.18;88.90
33845;BME280;20145;43.118;25.694;2023-04-08T01:50:26;99782.72;;;7.03;88.62
33845;BME280;20145;43.118;25.694;2023-04-08T01:52:53;99794.75;;;7.08;89.16
33845;BME280;20145;43.118;25.694;2023-04-08T01:55:19;99796.50;;;7.14;88.56
33845;BME280;20145;43.118;25.694;2023-04-08T01:57:52;99790.53;;;7.15;86.73
33845;BME280;20145;43.118;25.694;2023-04-08T02:00:21;99799.84;;;7.05;85.44
33845;BME280;20145;43.118;25.694;2023-04-08T02:02:48;99791.06;;;6.77;85.55
33845;BME280;20145;43.118;25.694;2023-04-08T02:05:15;99778.94;;;6.61;85.93
33845;BME280;20145;43.118;25.694;2023-04-08T02:07:40;99730.91;;;6.41;84.86
33845;BME280;20145;43.118;25.694;2023-04-08T02:10:06;99786.09;;;6.94;86.57
33845;BME280;20145;43.118;25.694;2023-04-08T02:12:32;99789.63;;;7.07;86.05
33845;BME280;20145;43.118;25.694;2023-04-08T02:14:58;99786.25;;;7.17;85.70
33845;BME280;20145;43.118;25.694;2023-04-08T02:20:17;99789.78;;;7.30;85.39
33845;BME280;20145;43.118;25.694;2023-04-08T02:22:54;99777.84;;;7.32;85.95
33845;BME280;20145;43.118;25.694;2023-04-08T02:25:23;99781.28;;;7.35;85.59
33845;BME280;20145;43.118;25.694;2023-04-08T02:27:51;99784.72;;;7.37;84.97
33845;BME280;20145;43.118;25.694;2023-04-08T02:30:18;99781.25;;;7.37;86.03
33845;BME280;20145;43.118;25.694;2023-04-08T02:32:46;99783.00;;;7.38;86.15
33845;BME280;20145;43.118;25.694;2023-04-08T02:35:13;99777.88;;;7.38;85.95
33845;BME280;20145;43.118;25.694;2023-04-08T02:37:40;99771.00;;;7.37;86.27
33845;BME280;20145;43.118;25.694;2023-04-08T02:40:30;99780.41;;;7.35;87.22
33845;BME280;20145;43.118;25.694;2023-04-08T02:42:57;99774.38;;;7.27;86.59
33845;BME280;20145;43.118;25.694;2023-04-08T02:45:26;99782.06;;;7.27;87.86
33845;BME280;20145;43.118;25.694;2023-04-08T02:47:52;99777.75;;;7.21;87.05
33845;BME280;20145;43.118;25.694;2023-04-08T02:50:18;99778.59;;;7.23;86.78
33845;BME280;20145;43.118;25.694;2023-04-08T02:52:43;99777.78;;;7.24;86.98
33845;BME280;20145;43.118;25.694;2023-04-08T02:55:09;99778.63;;;7.25;87.69
33845;BME280;20145;43.118;25.694;2023-04-08T02:57:36;99782.91;;;7.24;87.68
33845;BME280;20145;43.118;25.694;2023-04-08T03:00:03;99795.72;;;7.26;87.66
33845;BME280;20145;43.118;25.694;2023-04-08T03:02:29;99791.41;;;7.20;87.09
33845;BME280;20145;43.118;25.694;2023-04-08T03:04:55;99795.69;;;7.15;87.26
33845;BME280;20145;43.118;25.694;2023-04-08T03:07:20;99791.38;;;7.14;87.64
33845;BME280;20145;43.118;25.694;2023-04-08T03:09:46;99789.53;;;6.98;88.22
33845;BME280;20145;43.118;25.694;2023-04-08T03:12:11;99795.47;;;6.95;87.94
33845;BME280;20145;43.118;25.694;2023-04-08T03:14:37;99780.03;;;6.89;87.99
33845;BME280;20145;43.118;25.694;2023-04-08T03:17:02;99786.09;;;6.97;88.08
33845;BME280;20145;43.118;25.694;2023-04-08T03:19:28;99780.94;;;6.94;87.13
33845;BME280;20145;43.118;25.694;2023-04-08T03:21:53;99791.28;;;7.02;87.68
33845;BME280;20145;43.118;25.694;2023-04-08T03:24:19;99789.53;;;7.01;87.67
33845;BME280;20145;43.118;25.694;2023-04-08T03:26:45;99787.88;;;7.01;87.22
33845;BME280;20145;43.118;25.694;2023-04-08T03:29:10;99774.09;;;6.95;86.86
33845;BME280;20145;43.118;25.694;2023-04-08T03:31:36;99788.72;;;7.02;87.85
33845;BME280;20145;43.118;25.694;2023-04-08T03:34:01;99788.75;;;7.05;87.82
33845;BME280;20145;43.118;25.694;2023-04-08T03:36:27;99798.16;;;7.09;87.73
33845;BME280;20145;43.118;25.694;2023-04-08T03:38:52;99797.34;;;7.10;86.76
33845;BME280;20145;43.118;25.694;2023-04-08T03:41:18;99798.22;;;7.13;87.10
33845;BME280;20145;43.118;25.694;2023-04-08T03:43:43;99803.38;;;7.15;86.79
33845;BME280;20145;43.118;25.694;2023-04-08T03:46:09;99800.78;;;7.13;86.73
33845;BME280;20145;43.118;25.694;2023-04-08T03:48:35;99803.41;;;7.18;86.10
33845;BME280;20145;43.118;25.694;2023-04-08T03:51:01;99796.56;;;7.23;84.48
33845;BME280;20145;43.118;25.694;2023-04-08T03:53:26;99802.63;;;7.30;83.45
33845;BME280;20145;43.118;25.694;2023-04-08T03:55:53;99805.19;;;7.30;82.57
33845;BME280;20145;43.118;25.694;2023-04-08T03:58:20;99817.16;;;7.31;82.61
33845;BME280;20145;43.118;25.694;2023-04-08T04:00:45;99775.22;;;7.24;82.68
33845;BME280;20145;43.118;25.694;2023-04-08T04:03:11;99800.16;;;7.45;83.43
33845;BME280;20145;43.118;25.694;2023-04-08T04:05:38;99811.28;;;7.47;83.46
33845;BME280;20145;43.118;25.694;2023-04-08T04:08:04;99813.88;;;7.50;82.90
33845;BME280;20145;43.118;25.694;2023-04-08T04:10:29;99811.13;;;7.26;80.87
33845;BME280;20145;43.118;25.694;2023-04-08T04:12:55;99819.72;;;7.26;80.46
33845;BME280;20145;43.118;25.694;2023-04-08T04:15:20;99815.44;;;7.27;80.04
33845;BME280;20145;43.118;25.694;2023-04-08T04:17:49;99816.22;;;7.18;80.49
33845;BME280;20145;43.118;25.694;2023-04-08T04:20:15;99817.03;;;7.14;80.35
33845;BME280;20145;43.118;25.694;2023-04-08T04:22:41;99811.91;;;7.14;80.73
33845;BME280;20145;43.118;25.694;2023-04-08T04:25:07;99825.56;;;7.11;80.45
33845;BME280;20145;43.118;25.694;2023-04-08T04:27:33;99828.06;;;7.02;80.72
33845;BME280;20145;43.118;25.694;2023-04-08T04:30:00;99831.47;;;7.03;81.28
33845;BME280;20145;43.118;25.694;2023-04-08T04:32:25;99835.00;;;7.14;80.56
33845;BME280;20145;43.118;25.694;2023-04-08T04:34:51;99845.25;;;7.12;81.16
33845;BME280;20145;43.118;25.694;2023-04-08T04:37:17;99841.81;;;7.12;81.68
33845;BME280;20145;43.118;25.694;2023-04-08T04:39:43;99841.91;;;7.21;81.50
33845;BME280;20145;43.118;25.694;2023-04-08T04:42:08;99843.72;;;7.36;80.70
33845;BME280;20145;43.118;25.694;2023-04-08T04:44:34;99838.72;;;7.51;80.53
33845;BME280;20145;43.118;25.694;2023-04-08T04:47:00;99849.94;;;7.67;81.53
33845;BME280;20145;43.118;25.694;2023-04-08T04:49:25;99851.69;;;7.73;80.82
33845;BME280;20145;43.118;25.694;2023-04-08T04:51:51;99846.63;;;7.83;81.91
33845;BME280;20145;43.118;25.694;2023-04-08T04:54:16;99841.53;;;7.91;81.64
33845;BME280;20145;43.118;25.694;2023-04-08T04:56:42;99851.81;;;7.94;81.85
33845;BME280;20145;43.118;25.694;2023-04-08T04:59:07;99832.94;;;7.83;81.77
33845;BME280;20145;43.118;25.694;2023-04-08T05:01:33;99849.28;;;7.96;83.58
33845;BME280;20145;43.118;25.694;2023-04-08T05:03:59;99845.88;;;8.00;82.96
33845;BME280;20145;43.118;25.694;2023-04-08T05:06:25;99839.03;;;8.03;82.66
33845;BME280;20145;43.118;25.694;2023-04-08T05:08:51;99838.19;;;8.09;82.26
33845;BME280;20145;43.118;25.694;2023-04-08T05:11:17;99846.78;;;8.13;81.69
33845;BME280;20145;43.118;25.694;2023-04-08T05:13:43;99841.69;;;8.19;79.66
33845;BME280;20145;43.118;25.694;2023-04-08T05:16:09;99841.72;;;8.30;80.59
33845;BME280;20145;43.118;25.694;2023-04-08T05:18:35;99846.84;;;8.31;77.00
33845;BME280;20145;43.118;25.694;2023-04-08T05:21:01;99852.00;;;8.23;76.59
33845;BME280;20145;43.118;25.694;2023-04-08T05:23:27;99851.16;;;8.31;77.54
33845;BME280;20145;43.118;25.694;2023-04-08T05:25:52;99856.38;;;8.44;78.14
33845;BME280;20145;43.118;25.694;2023-04-08T05:28:18;99852.13;;;8.53;75.91
33845;BME280;20145;43.118;25.694;2023-04-08T05:30:51;99854.72;;;8.57;73.02
33845;BME280;20145;43.118;25.694;2023-04-08T05:33:17;99860.75;;;8.65;71.33
33845;BME280;20145;43.118;25.694;2023-04-08T05:35:43;99844.47;;;8.62;71.82
33845;BME280;20145;43.118;25.694;2023-04-08T05:38:08;99864.19;;;8.66;71.87
33845;BME280;20145;43.118;25.694;2023-04-08T05:40:34;99866.75;;;8.66;71.89
33845;BME280;20145;43.118;25.694;2023-04-08T05:43:00;99862.47;;;8.65;71.65
33845;BME280;20145;43.118;25.694;2023-04-08T05:45:27;99859.88;;;8.69;70.60
33845;BME280;20145;43.118;25.694;2023-04-08T05:47:52;99855.66;;;8.79;70.77
33845;BME280;20145;43.118;25.694;2023-04-08T05:50:18;99862.50;;;8.82;70.77
33845;BME280;20145;43.118;25.694;2023-04-08T05:52:44;99865.06;;;8.86;70.31
33845;BME280;20145;43.118;25.694;2023-04-08T05:55:10;99863.38;;;8.87;70.29
33845;BME280;20145;43.118;25.694;2023-04-08T05:57:36;99862.50;;;8.79;71.05
33845;BME280;20145;43.118;25.694;2023-04-08T06:00:04;99863.34;;;8.84;70.89
33845;BME280;20145;43.118;25.694;2023-04-08T06:02:29;99865.94;;;8.88;70.54
33845;BME280;20145;43.118;25.694;2023-04-08T06:04:55;99866.81;;;9.06;70.39
33845;BME280;20145;43.118;25.694;2023-04-08T06:07:21;99859.13;;;9.20;70.18
33845;BME280;20145;43.118;25.694;2023-04-08T06:09:46;99866.84;;;9.30;68.34
33845;BME280;20145;43.118;25.694;2023-04-08T06:12:12;99870.31;;;9.37;67.43
33845;BME280;20145;43.118;25.694;2023-04-08T06:14:37;99853.97;;;9.50;67.57
33845;BME280;20145;43.118;25.694;2023-04-08T06:17:03;99872.84;;;9.72;67.83
33845;BME280;20145;43.118;25.694;2023-04-08T06:19:29;99856.53;;;9.78;66.34
33845;BME280;20145;43.118;25.694;2023-04-08T06:21:54;99873.72;;;9.79;67.73
33845;BME280;20145;43.118;25.694;2023-04-08T06:24:26;99860.84;;;9.68;65.90
33845;BME280;20145;43.118;25.694;2023-04-08T06:26:52;99868.56;;;9.53;66.56
33845;BME280;20145;43.118;25.694;2023-04-08T06:29:19;99865.16;;;9.51;66.08
33845;BME280;20145;43.118;25.694;2023-04-08T06:31:44;99864.28;;;9.73;66.57
33845;BME280;20145;43.118;25.694;2023-04-08T06:34:10;99878.00;;;9.69;66.63
33845;BME280;20145;43.118;25.694;2023-04-08T06:36:35;99872.81;;;9.89;66.55
33845;BME280;20145;43.118;25.694;2023-04-08T06:39:01;99839.34;;;9.77;66.82
33845;BME280;20145;43.118;25.694;2023-04-08T06:41:26;99870.22;;;9.97;66.17
33845;BME280;20145;43.118;25.694;2023-04-08T06:43:52;99871.91;;;10.09;65.15
33845;BME280;20145;43.118;25.694;2023-04-08T06:46:17;99876.19;;;10.28;65.43
33845;BME280;20145;43.118;25.694;2023-04-08T06:48:43;99881.34;;;10.37;65.67
33845;BME280;20145;43.118;25.694;2023-04-08T06:51:08;99871.03;;;10.37;65.04
33845;BME280;20145;43.118;25.694;2023-04-08T06:53:34;99888.25;;;10.29;64.29
33845;BME280;20145;43.118;25.694;2023-04-08T06:56:00;99889.94;;;10.25;65.60
33845;BME280;20145;43.118;25.694;2023-04-08T06:58:25;99886.47;;;10.39;65.75
33845;BME280;20145;43.118;25.694;2023-04-08T07:00:53;99879.59;;;10.45;65.53
33845;BME280;20145;43.118;25.694;2023-04-08T07:03:19;99882.13;;;10.56;64.17
33845;BME280;20145;43.118;25.694;2023-04-08T07:05:44;99887.25;;;10.67;64.10
33845;BME280;20145;43.118;25.694;2023-04-08T07:08:11;99885.31;;;11.01;63.73
33845;BME280;20145;43.118;25.694;2023-04-08T07:10:37;99888.72;;;11.08;63.46
33845;BME280;20145;43.118;25.694;2023-04-08T07:13:02;99886.19;;;11.03;64.10
33845;BME280;20145;43.118;25.694;2023-04-08T07:15:28;99893.66;;;11.38;63.78
33845;BME280;20145;43.118;25.694;2023-04-08T07:17:54;99887.78;;;11.23;62.40
33845;BME280;20145;43.118;25.694;2023-04-08T07:20:23;99894.63;;;11.28;63.16
33845;BME280;20145;43.118;25.694;2023-04-08T07:22:49;99896.25;;;11.38;63.39
33845;BME280;20145;43.118;25.694;2023-04-08T07:25:15;99891.09;;;11.38;61.94
33845;BME280;20145;43.118;25.694;2023-04-08T07:27:40;99884.28;;;11.28;61.12
33845;BME280;20145;43.118;25.694;2023-04-08T07:30:06;99890.25;;;11.36;61.13
33845;BME280;20145;43.118;25.694;2023-04-08T07:32:33;99890.34;;;11.21;61.44
33845;BME280;20145;43.118;25.694;2023-04-08T07:35:00;99883.50;;;11.17;62.14
33845;BME280;20145;43.118;25.694;2023-04-08T07:37:26;99883.50;;;11.14;62.42
33845;BME280;20145;43.118;25.694;2023-04-08T07:39:51;99885.94;;;11.35;62.89
33845;BME280;20145;43.118;25.694;2023-04-08T07:42:17;99885.09;;;11.36;62.15
33845;BME280;20145;43.118;25.694;2023-04-08T07:44:44;99888.13;;;11.83;61.13
33845;BME280;20145;43.118;25.694;2023-04-08T07:47:10;99887.09;;;12.04;61.88
33845;BME280;20145;43.118;25.694;2023-04-08T07:49:39;99890.59;;;11.97;60.83
33845;BME280;20145;43.118;25.694;2023-04-08T07:52:05;99892.31;;;11.99;59.89
33845;BME280;20145;43.118;25.694;2023-04-08T07:54:31;99888.03;;;11.97;60.63
33845;BME280;20145;43.118;25.694;2023-04-08T07:57:00;99894.78;;;12.10;58.99
33845;BME280;20145;43.118;25.694;2023-04-08T07:59:27;99900.72;;;12.20;60.63
33845;BME280;20145;43.118;25.694;2023-04-08T08:01:53;99899.59;;;12.44;58.65
33845;BME280;20145;43.118;25.694;2023-04-08T08:04:18;99895.84;;;12.66;60.22
33845;BME280;20145;43.118;25.694;2023-04-08T08:06:44;99898.81;;;12.37;57.76
33845;BME280;20145;43.118;25.694;2023-04-08T08:09:10;99895.94;;;12.62;59.32
33845;BME280;20145;43.118;25.694;2023-04-08T08:11:36;99893.91;;;12.84;58.66
33845;BME280;20145;43.118;25.694;2023-04-08T08:14:01;99890.44;;;12.86;57.31
33845;BME280;20145;43.118;25.694;2023-04-08T08:16:29;99890.84;;;13.17;58.73
33845;BME280;20145;43.118;25.694;2023-04-08T08:18:56;99889.63;;;13.43;57.69
33845;BME280;20145;43.118;25.694;2023-04-08T08:21:22;99889.06;;;13.21;57.09
33845;BME280;20145;43.118;25.694;2023-04-08T08:23:48;99895.13;;;13.20;56.94
33845;BME280;20145;43.118;25.694;2023-04-08T08:26:16;99889.06;;;13.21;59.49
33845;BME280;20145;43.118;25.694;2023-04-08T08:28:41;99888.38;;;13.10;58.91
33845;BME280;20145;43.118;25.694;2023-04-08T08:31:07;99890.69;;;13.30;57.94
33845;BME280;20145;43.118;25.694;2023-04-08T08:33:32;99884.53;;;13.35;57.25
33845;BME280;20145;43.118;25.694;2023-04-08T08:35:58;99881.59;;;13.58;58.00
33845;BME280;20145;43.118;25.694;2023-04-08T08:38:24;99880.09;;;13.45;56.64
33845;BME280;20145;43.118;25.694;2023-04-08T08:40:54;99873.34;;;13.84;58.28
33845;BME280;20145;43.118;25.694;2023-04-08T08:43:21;99878.25;;;13.52;57.65
33845;BME280;20145;43.118;25.694;2023-04-08T08:45:46;99886.56;;;13.16;58.88
33845;BME280;20145;43.118;25.694;2023-04-08T08:48:12;99885.31;;;13.42;57.80
33845;BME280;20145;43.118;25.694;2023-04-08T08:50:38;99885.84;;;13.63;57.28
33845;BME280;20145;43.118;25.694;2023-04-08T08:53:04;99886.13;;;13.47;58.57
33845;BME280;20145;43.118;25.694;2023-04-08T08:55:31;99879.69;;;13.68;57.98
33845;BME280;20145;43.118;25.694;2023-04-08T08:57:59;99889.34;;;13.60;58.05
33845;BME280;20145;43.118;25.694;2023-04-08T09:00:36;99890.00;;;13.71;57.85
33845;BME280;20145;43.118;25.694;2023-04-08T09:03:21;99893.81;;;14.01;57.60
33845;BME280;20145;43.118;25.694;2023-04-08T09:05:57;99890.47;;;13.95;56.80
33845;BME280;20145;43.118;25.694;2023-04-08T09:10:52;99894.53;;;14.55;55.22
33845;BME280;20145;43.118;25.694;2023-04-08T09:13:18;99898.19;;;14.44;56.55
33845;BME280;20145;43.118;25.694;2023-04-08T09:16:04;99889.72;;;14.78;55.64
33845;BME280;20145;43.118;25.694;2023-04-08T09:18:31;99888.13;;;14.71;55.38
33845;BME280;20145;43.118;25.694;2023-04-08T09:20:59;99891.19;;;14.91;55.75
33845;BME280;20145;43.118;25.694;2023-04-08T09:26:22;99900.41;;;15.42;54.51
33845;BME280;20145;43.118;25.694;2023-04-08T09:29:04;99895.28;;;15.39;54.32
33845;BME280;20145;43.118;25.694;2023-04-08T09:31:33;99897.78;;;15.44;53.45
33845;BME280;20145;43.118;25.694;2023-04-08T09:34:11;99896.44;;;15.27;53.03
33845;BME280;20145;43.118;25.694;2023-04-08T09:36:37;99885.16;;;15.27;54.24
33845;BME280;20145;43.118;25.694;2023-04-08T09:39:04;99887.81;;;15.25;53.54
33845;BME280;20145;43.118;25.694;2023-04-08T09:41:33;99887.66;;;15.67;53.70
33845;BME280;20145;43.118;25.694;2023-04-08T09:44:02;99887.16;;;15.87;52.98
33845;BME280;20145;43.118;25.694;2023-04-08T09:46:35;99884.03;;;16.07;52.02
33845;BME280;20145;43.118;25.694;2023-04-08T09:49:12;99870.72;;;15.51;52.03
33845;BME280;20145;43.118;25.694;2023-04-08T10:00:21;99884.97;;;15.34;53.71
33845;BME280;20145;43.118;25.694;2023-04-08T10:03:10;99883.63;;;15.54;52.14
33845;BME280;20145;43.118;25.694;2023-04-08T10:05:40;99889.81;;;15.14;52.98
33845;BME280;20145;43.118;25.694;2023-04-08T10:08:06;99879.25;;;15.56;52.16
33845;BME280;20145;43.118;25.694;2023-04-08T10:10:33;99886.78;;;15.68;53.11
33845;BME280;20145;43.118;25.694;2023-04-08T10:13:02;99880.00;;;15.61;52.34
33845;BME280;20145;43.118;25.694;2023-04-08T10:15:32;99893.03;;;15.59;53.29
33845;BME280;20145;43.118;25.694;2023-04-08T10:23:09;99882.44;;;15.67;52.93
33845;BME280;20145;43.118;25.694;2023-04-08T10:25:42;99889.81;;;15.86;53.41
33845;BME280;20145;43.118;25.694;2023-04-08T10:30:40;99878.41;;;15.55;51.58
33845;BME280;20145;43.118;25.694;2023-04-08T10:33:17;99878.63;;;15.46;51.89
33845;BME280;20145;43.118;25.694;2023-04-08T10:35:46;99877.03;;;15.76;51.75
33845;BME280;20145;43.118;25.694;2023-04-08T10:38:13;99869.69;;;15.58;53.45
33845;BME280;20145;43.118;25.694;2023-04-08T10:40:39;99872.91;;;15.69;53.32
33845;BME280;20145;43.118;25.694;2023-04-08T10:43:09;99857.44;;;15.61;53.19
33845;BME280;20145;43.118;25.694;2023-04-08T10:45:36;99868.03;;;15.54;53.85
33845;BME280;20145;43.118;25.694;2023-04-08T10:48:21;99858.97;;;15.36;53.79
33845;BME280;20145;43.118;25.694;2023-04-08T10:51:01;99857.88;;;15.80;54.42
33845;BME280;20145;43.118;25.694;2023-04-08T10:53:35;99840.16;;;16.56;52.14
33845;BME280;20145;43.118;25.694;2023-04-08T10:56:05;99855.88;;;16.53;52.53
33845;BME280;20145;43.118;25.694;2023-04-08T10:58:31;99855.28;;;16.72;51.17
33845;BME280;20145;43.118;25.694;2023-04-08T11:01:05;99845.88;;;16.37;50.86
33845;BME280;20145;43.118;25.694;2023-04-08T11:03:35;99855.84;;;15.92;51.44
33845;BME280;20145;43.118;25.694;2023-04-08T11:06:02;99846.03;;;15.67;53.52
33845;BME280;20145;43.118;25.694;2023-04-08T11:08:32;99840.16;;;15.93;53.15
33845;BME280;20145;43.118;25.694;2023-04-08T11:10:58;99842.38;;;16.07;52.65
33845;BME280;20145;43.118;25.694;2023-04-08T11:13:26;99845.53;;;15.53;51.22
33845;BME280;20145;43.118;25.694;2023-04-08T11:15:53;99834.69;;;15.71;51.49
33845;BME280;20145;43.118;25.694;2023-04-08T11:18:19;99834.81;;;15.99;51.52
33845;BME280;20145;43.118;25.694;2023-04-08T11:20:50;99828.88;;;15.94;51.89
33845;BME280;20145;43.118;25.694;2023-04-08T11:23:16;99834.91;;;15.95;52.48
33845;BME280;20145;43.118;25.694;2023-04-08T11:25:43;99823.06;;;16.16;52.13
33845;BME280;20145;43.118;25.694;2023-04-08T11:28:10;99825.31;;;16.28;51.04
33845;BME280;20145;43.118;25.694;2023-04-08T11:30:37;99822.91;;;16.22;52.13
33845;BME280;20145;43.118;25.694;2023-04-08T11:33:03;99833.13;;;16.28;50.27
33845;BME280;20145;43.118;25.694;2023-04-08T11:35:29;99826.50;;;16.76;50.17
33845;BME280;20145;43.118;25.694;2023-04-08T11:37:56;99823.00;;;16.78;49.61
33845;BME280;20145;43.118;25.694;2023-04-08T11:40:22;99819.06;;;16.63;48.71
33845;BME280;20145;43.118;25.694;2023-04-08T11:42:49;99832.53;;;16.48;48.85
33845;BME280;20145;43.118;25.694;2023-04-08T11:45:16;99820.44;;;16.47;48.81
33845;BME280;20145;43.118;25.694;2023-04-08T11:47:43;99821.16;;;16.52;47.68
33845;BME280;20145;43.118;25.694;2023-04-08T11:50:09;99819.19;;;16.60;47.83
33845;BME280;20145;43.118;25.694;2023-04-08T11:52:45;99820.22;;;16.55;47.97
33845;BME280;20145;43.118;25.694;2023-04-08T11:55:24;99816.38;;;16.37;47.31
33845;BME280;20145;43.118;25.694;2023-04-08T11:57:50;99811.91;;;16.42;47.48
33845;BME280;20145;43.118;25.694;2023-04-08T12:00:17;99806.31;;;16.54;47.73
33845;BME280;20145;43.118;25.694;2023-04-08T12:02:43;99811.34;;;16.60;47.91
33845;BME280;20145;43.118;25.694;2023-04-08T12:05:09;99816.03;;;16.49;47.52
33845;BME280;20145;43.118;25.694;2023-04-08T12:07:35;99806.16;;;16.31;47.85
33845;BME280;20145;43.118;25.694;2023-04-08T12:10:01;99800.59;;;16.13;48.23
33845;BME280;20145;43.118;25.694;2023-04-08T12:12:26;99805.78;;;16.13;48.16
33845;BME280;20145;43.118;25.694;2023-04-08T12:14:52;99802.03;;;15.92;48.17
33845;BME280;20145;43.118;25.694;2023-04-08T12:17:18;99798.44;;;16.27;47.82
33845;BME280;20145;43.118;25.694;2023-04-08T12:19:43;99806.47;;;16.49;47.38
33845;BME280;20145;43.118;25.694;2023-04-08T12:22:09;99799.31;;;16.56;47.11
33845;BME280;20145;43.118;25.694;2023-04-08T12:24:35;99806.59;;;16.73;47.05
33845;BME280;20145;43.118;25.694;2023-04-08T12:27:00;99791.38;;;16.61;47.09
33845;BME280;20145;43.118;25.694;2023-04-08T12:29:27;99806.03;;;16.35;47.24
33845;BME280;20145;43.118;25.694;2023-04-08T12:31:53;99800.94;;;16.31;46.89
33845;BME280;20145;43.118;25.694;2023-04-08T12:34:19;99801.75;;;16.01;46.85
33845;BME280;20145;43.118;25.694;2023-04-08T12:36:44;99796.72;;;15.97;48.97
33845;BME280;20145;43.118;25.694;2023-04-08T12:39:10;99789.75;;;15.97;48.40
33845;BME280;20145;43.118;25.694;2023-04-08T12:41:35;99787.59;;;16.12;50.76
33845;BME280;20145;43.118;25.694;2023-04-08T12:44:01;99792.59;;;16.19;49.06
33845;BME280;20145;43.118;25.694;2023-04-08T12:46:27;99793.31;;;15.93;49.48
33845;BME280;20145;43.118;25.694;2023-04-08T12:48:53;99802.50;;;15.75;49.35
33845;BME280;20145;43.118;25.694;2023-04-08T12:51:18;99791.56;;;15.61;50.46
33845;BME280;20145;43.118;25.694;2023-04-08T12:53:44;99796.63;;;15.66;50.03
33845;BME280;20145;43.118;25.694;2023-04-08T12:56:10;99793.59;;;15.50;49.27
33845;BME280;20145;43.118;25.694;2023-04-08T12:58:35;99794.56;;;15.46;49.61
33845;BME280;20145;43.118;25.694;2023-04-08T13:01:01;99793.81;;;15.40;49.50
33845;BME280;20145;43.118;25.694;2023-04-08T13:03:27;99803.44;;;15.38;48.67
33845;BME280;20145;43.118;25.694;2023-04-08T13:05:55;99792.00;;;15.44;50.16
33845;BME280;20145;43.118;25.694;2023-04-08T13:08:21;99782.91;;;15.60;49.47
33845;BME280;20145;43.118;25.694;2023-04-08T13:10:47;99788.34;;;15.86;48.42
33845;BME280;20145;43.118;25.694;2023-04-08T13:13:13;99778.41;;;16.30;47.16
33845;BME280;20145;43.118;25.694;2023-04-08T13:15:38;99787.25;;;16.24;48.55
33845;BME280;20145;43.118;25.694;2023-04-08T13:18:04;99780.59;;;16.14;47.21
33845;BME280;20145;43.118;25.694;2023-04-08T13:20:30;99786.38;;;16.23;46.91
33845;BME280;20145;43.118;25.694;2023-04-08T13:22:55;99775.97;;;16.23;48.02
33845;BME280;20145;43.118;25.694;2023-04-08T13:25:21;99772.53;;;16.23;47.45